KFAM/FAM METAR and TAF weather

Enter ICAO airport designator
Station Type Date Time Source
KFAM METAR 2021/02/27 02:56 UTC NOAA

KFAM 270256Z AUTO 17007KT 8SM -RA OVC004 05/05 A2989 RMK AO2 RAB31 SLP137 P0000 60001 T00500050 51001


Station Type Date Time Source
KFAM Decoded METAR 2021/02/27 02:56 UTC NOAA

Farmington Airport, MO, United States (KFAM) 37-46N 090-26W
Feb 26, 2021 - 09:56 PM EST / 2021.02.27 0256 UTC
Wind: from the S (170 degrees) at 8 MPH (7 KT):0
Visibility: 8 mile(s):0
Sky conditions: overcast
Weather: light rain
Precipitation last hour: A trace
Temperature: 41.0 F (5.0 C)
Dew Point: 41.0 F (5.0 C)
Relative Humidity: 100%
Pressure (altimeter): 29.89 in. Hg (1012 hPa)
Pressure tendency: 0.00 inches (0.1 hPa) higher than three hours ago
ob: KFAM 270256Z AUTO 17007KT 8SM -RA OVC004 05/05 A2989 RMK AO2 RAB31 SLP137 P0000 60001 T00500050 51001
cycle: 3

Station Type Date Time Source
KFAM TAF UTC NOAA

Error!

Example: see airport list